sensor_id;sensor_type;location;lat;lon;timestamp;temperature;humidity
52381;DHT22;38310;52.796;6.942;2023-04-22T00:00:53;11.50;99.90
52381;DHT22;38310;52.796;6.942;2023-04-22T00:03:19;11.50;99.90
52381;DHT22;38310;52.796;6.942;2023-04-22T00:05:47;11.40;99.90
52381;DHT22;38310;52.796;6.942;2023-04-22T00:08:13;11.20;99.90
52381;DHT22;38310;52.796;6.942;2023-04-22T00:10:38;11.20;99.90
52381;DHT22;38310;52.796;6.942;2023-04-22T00:13:04;11.10;99.90
52381;DHT22;38310;52.796;6.942;2023-04-22T00:15:30;11.10;99.90
52381;DHT22;38310;52.796;6.942;2023-04-22T00:17:57;11.00;99.90
52381;DHT22;38310;52.796;6.942;2023-04-22T00:20:23;10.80;99.90
52381;DHT22;38310;52.796;6.942;2023-04-22T00:22:50;10.80;99.90
52381;DHT22;38310;52.796;6.942;2023-04-22T00:25:16;10.80;99.90
52381;DHT22;38310;52.796;6.942;2023-04-22T00:27:41;10.80;99.90
52381;DHT22;38310;52.796;6.942;2023-04-22T00:30:07;10.80;99.90
52381;DHT22;38310;52.796;6.942;2023-04-22T00:32:34;10.70;99.90
52381;DHT22;38310;52.796;6.942;2023-04-22T00:35:00;10.70;99.90
52381;DHT22;38310;52.796;6.942;2023-04-22T00:37:25;10.70;99.90
52381;DHT22;38310;52.796;6.942;2023-04-22T00:39:51;10.70;99.90
52381;DHT22;38310;52.796;6.942;2023-04-22T00:42:17;10.60;99.90
52381;DHT22;38310;52.796;6.942;2023-04-22T00:44:43;10.50;99.90
52381;DHT22;38310;52.796;6.942;2023-04-22T00:47:11;10.60;99.90
52381;DHT22;38310;52.796;6.942;2023-04-22T00:49:38;10.50;99.90
52381;DHT22;38310;52.796;6.942;2023-04-22T00:52:04;10.40;99.90
52381;DHT22;38310;52.796;6.942;2023-04-22T00:54:30;10.40;99.90
52381;DHT22;38310;52.796;6.942;2023-04-22T00:56:57;10.40;99.90
52381;DHT22;38310;52.796;6.942;2023-04-22T00:59:24;10.40;99.90
52381;DHT22;38310;52.796;6.942;2023-04-22T01:01:51;10.30;99.90
52381;DHT22;38310;52.796;6.942;2023-04-22T01:04:18;10.20;99.90
52381;DHT22;38310;52.796;6.942;2023-04-22T01:06:44;10.30;99.90
52381;DHT22;38310;52.796;6.942;2023-04-22T01:09:12;10.20;99.90
52381;DHT22;38310;52.796;6.942;2023-04-22T01:11:37;10.10;99.90
52381;DHT22;38310;52.796;6.942;2023-04-22T01:14:03;10.10;99.90
52381;DHT22;38310;52.796;6.942;2023-04-22T01:16:30;10.10;99.90
52381;DHT22;38310;52.796;6.942;2023-04-22T01:18:58;10.00;99.90
52381;DHT22;38310;52.796;6.942;2023-04-22T01:21:26;10.60;99.90
52381;DHT22;38310;52.796;6.942;2023-04-22T01:23:52;9.90;99.90
52381;DHT22;38310;52.796;6.942;2023-04-22T01:26:18;9.80;99.90
52381;DHT22;38310;52.796;6.942;2023-04-22T01:28:43;9.80;99.90
52381;DHT22;38310;52.796;6.942;2023-04-22T01:31:10;9.70;99.90
52381;DHT22;38310;52.796;6.942;2023-04-22T01:33:36;9.70;99.90
52381;DHT22;38310;52.796;6.942;2023-04-22T01:36:02;9.60;99.90
52381;DHT22;38310;52.796;6.942;2023-04-22T01:38:28;9.50;99.90
52381;DHT22;38310;52.796;6.942;2023-04-22T01:40:58;9.50;99.90
52381;DHT22;38310;52.796;6.942;2023-04-22T01:43:24;9.50;99.90
52381;DHT22;38310;52.796;6.942;2023-04-22T01:45:50;9.40;99.90
52381;DHT22;38310;52.796;6.942;2023-04-22T01:48:16;9.30;99.90
52381;DHT22;38310;52.796;6.942;2023-04-22T01:50:42;9.40;99.90
52381;DHT22;38310;52.796;6.942;2023-04-22T01:53:07;9.30;99.90
52381;DHT22;38310;52.796;6.942;2023-04-22T01:55:33;9.20;99.90
52381;DHT22;38310;52.796;6.942;2023-04-22T01:58:01;9.20;99.90
52381;DHT22;38310;52.796;6.942;2023-04-22T02:00:26;9.20;99.90
52381;DHT22;38310;52.796;6.942;2023-04-22T02:02:52;9.20;99.90
52381;DHT22;38310;52.796;6.942;2023-04-22T02:05:18;9.00;99.90
52381;DHT22;38310;52.796;6.942;2023-04-22T02:07:43;9.10;99.90
52381;DHT22;38310;52.796;6.942;2023-04-22T02:10:10;9.00;99.90
52381;DHT22;38310;52.796;6.942;2023-04-22T02:12:36;8.90;99.90
52381;DHT22;38310;52.796;6.942;2023-04-22T02:15:02;8.90;99.90
52381;DHT22;38310;52.796;6.942;2023-04-22T02:17:29;8.90;99.90
52381;DHT22;38310;52.796;6.942;2023-04-22T02:19:54;8.90;99.90
52381;DHT22;38310;52.796;6.942;2023-04-22T02:22:21;8.90;99.90
52381;DHT22;38310;52.796;6.942;2023-04-22T02:24:47;8.90;99.90
52381;DHT22;38310;52.796;6.942;2023-04-22T02:27:12;8.90;99.90
52381;DHT22;38310;52.796;6.942;2023-04-22T02:29:38;8.20;99.90
52381;DHT22;38310;52.796;6.942;2023-04-22T02:32:04;8.90;99.90
52381;DHT22;38310;52.796;6.942;2023-04-22T02:34:29;8.80;99.90
52381;DHT22;38310;52.796;6.942;2023-04-22T02:36:55;8.80;99.90
52381;DHT22;38310;52.796;6.942;2023-04-22T02:39:21;8.70;99.90
52381;DHT22;38310;52.796;6.942;2023-04-22T02:41:46;8.70;99.90
52381;DHT22;38310;52.796;6.942;2023-04-22T02:44:12;8.70;99.90
52381;DHT22;38310;52.796;6.942;2023-04-22T02:46:38;8.70;99.90
52381;DHT22;38310;52.796;6.942;2023-04-22T02:49:03;8.60;99.90
52381;DHT22;38310;52.796;6.942;2023-04-22T02:51:32;8.60;99.90
52381;DHT22;38310;52.796;6.942;2023-04-22T02:53:57;8.60;99.90
52381;DHT22;38310;52.796;6.942;2023-04-22T02:56:24;8.60;99.90
52381;DHT22;38310;52.796;6.942;2023-04-22T02:58:51;8.50;99.90
52381;DHT22;38310;52.796;6.942;2023-04-22T03:01:16;8.50;99.90
52381;DHT22;38310;52.796;6.942;2023-04-22T03:03:42;8.40;99.90
52381;DHT22;38310;52.796;6.942;2023-04-22T03:06:08;8.40;99.90
52381;DHT22;38310;52.796;6.942;2023-04-22T03:08:33;8.30;99.90
52381;DHT22;38310;52.796;6.942;2023-04-22T03:10:59;8.30;99.90
52381;DHT22;38310;52.796;6.942;2023-04-22T03:13:25;8.30;99.90
52381;DHT22;38310;52.796;6.942;2023-04-22T03:15:50;8.30;99.90
52381;DHT22;38310;52.796;6.942;2023-04-22T03:18:16;8.20;99.90
52381;DHT22;38310;52.796;6.942;2023-04-22T03:20:42;8.20;99.90
52381;DHT22;38310;52.796;6.942;2023-04-22T03:23:08;9.40;99.90
52381;DHT22;38310;52.796;6.942;2023-04-22T03:25:34;8.20;99.90
52381;DHT22;38310;52.796;6.942;2023-04-22T03:28:01;8.10;99.90
52381;DHT22;38310;52.796;6.942;2023-04-22T03:30:27;8.10;99.90
52381;DHT22;38310;52.796;6.942;2023-04-22T03:32:52;8.10;99.90
52381;DHT22;38310;52.796;6.942;2023-04-22T03:35:21;8.00;99.90
52381;DHT22;38310;52.796;6.942;2023-04-22T03:37:47;8.20;99.90
52381;DHT22;38310;52.796;6.942;2023-04-22T03:40:12;8.00;99.90
52381;DHT22;38310;52.796;6.942;2023-04-22T03:42:38;8.00;99.90
52381;DHT22;38310;52.796;6.942;2023-04-22T03:45:04;8.00;99.90
52381;DHT22;38310;52.796;6.942;2023-04-22T03:47:30;7.90;99.90
52381;DHT22;38310;52.796;6.942;2023-04-22T03:49:56;8.00;99.90
52381;DHT22;38310;52.796;6.942;2023-04-22T03:52:21;8.20;99.90
52381;DHT22;38310;52.796;6.942;2023-04-22T03:54:47;8.10;99.90
52381;DHT22;38310;52.796;6.942;2023-04-22T03:57:13;8.10;99.90
52381;DHT22;38310;52.796;6.942;2023-04-22T03:59:38;8.30;99.90
52381;DHT22;38310;52.796;6.942;2023-04-22T04:02:04;8.20;99.90
52381;DHT22;38310;52.796;6.942;2023-04-22T04:04:32;8.20;99.90
52381;DHT22;38310;52.796;6.942;2023-04-22T04:06:59;8.20;99.90
52381;DHT22;38310;52.796;6.942;2023-04-22T04:09:25;8.30;99.90
52381;DHT22;38310;52.796;6.942;2023-04-22T04:11:51;8.50;99.90
52381;DHT22;38310;52.796;6.942;2023-04-22T04:14:17;8.30;99.90
52381;DHT22;38310;52.796;6.942;2023-04-22T04:16:43;8.30;99.90
52381;DHT22;38310;52.796;6.942;2023-04-22T04:19:09;8.30;99.90
52381;DHT22;38310;52.796;6.942;2023-04-22T04:21:35;8.30;99.90
52381;DHT22;38310;52.796;6.942;2023-04-22T04:24:05;8.20;99.90
52381;DHT22;38310;52.796;6.942;2023-04-22T04:26:31;8.20;99.90
52381;DHT22;38310;52.796;6.942;2023-04-22T04:28:58;8.20;99.90
52381;DHT22;38310;52.796;6.942;2023-04-22T04:31:27;8.20;99.90
52381;DHT22;38310;52.796;6.942;2023-04-22T04:33:52;8.20;99.90
52381;DHT22;38310;52.796;6.942;2023-04-22T04:36:18;8.20;99.90
52381;DHT22;38310;52.796;6.942;2023-04-22T04:38:44;8.20;99.90
52381;DHT22;38310;52.796;6.942;2023-04-22T04:41:11;8.30;99.90
52381;DHT22;38310;52.796;6.942;2023-04-22T04:43:38;8.40;99.90
52381;DHT22;38310;52.796;6.942;2023-04-22T04:46:05;8.40;99.90
52381;DHT22;38310;52.796;6.942;2023-04-22T04:48:30;8.50;99.90
52381;DHT22;38310;52.796;6.942;2023-04-22T04:51:00;8.50;99.90
52381;DHT22;38310;52.796;6.942;2023-04-22T04:53:26;8.60;99.90
52381;DHT22;38310;52.796;6.942;2023-04-22T04:55:51;8.70;99.90
52381;DHT22;38310;52.796;6.942;2023-04-22T04:58:17;8.70;99.90
52381;DHT22;38310;52.796;6.942;2023-04-22T05:00:43;8.70;99.90
52381;DHT22;38310;52.796;6.942;2023-04-22T05:03:08;8.70;99.90
52381;DHT22;38310;52.796;6.942;2023-04-22T05:05:34;8.80;99.90
52381;DHT22;38310;52.796;6.942;2023-04-22T05:08:00;8.80;99.90
52381;DHT22;38310;52.796;6.942;2023-04-22T05:10:26;8.80;99.90
52381;DHT22;38310;52.796;6.942;2023-04-22T05:12:51;8.80;99.90
52381;DHT22;38310;52.796;6.942;2023-04-22T05:15:17;8.80;99.90
52381;DHT22;38310;52.796;6.942;2023-04-22T05:17:43;8.80;99.90
52381;DHT22;38310;52.796;6.942;2023-04-22T05:20:09;8.90;99.90
52381;DHT22;38310;52.796;6.942;2023-04-22T05:22:34;8.90;99.90
52381;DHT22;38310;52.796;6.942;2023-04-22T05:25:06;8.90;99.90
52381;DHT22;38310;52.796;6.942;2023-04-22T05:27:32;8.90;99.90
52381;DHT22;38310;52.796;6.942;2023-04-22T05:29:57;9.00;99.90
52381;DHT22;38310;52.796;6.942;2023-04-22T05:32:23;9.00;99.90
52381;DHT22;38310;52.796;6.942;2023-04-22T05:34:49;9.00;99.90
52381;DHT22;38310;52.796;6.942;2023-04-22T05:37:15;9.10;99.90
52381;DHT22;38310;52.796;6.942;2023-04-22T05:39:40;9.20;99.90
52381;DHT22;38310;52.796;6.942;2023-04-22T05:42:06;9.20;99.90
52381;DHT22;38310;52.796;6.942;2023-04-22T05:44:33;9.20;99.90
52381;DHT22;38310;52.796;6.942;2023-04-22T05:46:59;9.30;99.90
52381;DHT22;38310;52.796;6.942;2023-04-22T05:49:25;9.30;99.90
52381;DHT22;38310;52.796;6.942;2023-04-22T05:51:50;9.30;99.90
52381;DHT22;38310;52.796;6.942;2023-04-22T05:54:16;9.50;99.90
52381;DHT22;38310;52.796;6.942;2023-04-22T05:56:42;9.50;99.90
52381;DHT22;38310;52.796;6.942;2023-04-22T05:59:08;9.60;99.90
52381;DHT22;38310;52.796;6.942;2023-04-22T06:01:35;9.60;99.90
52381;DHT22;38310;52.796;6.942;2023-04-22T06:04:02;9.60;99.90
52381;DHT22;38310;52.796;6.942;2023-04-22T06:06:30;9.70;99.90
52381;DHT22;38310;52.796;6.942;2023-04-22T06:08:56;9.80;99.90
52381;DHT22;38310;52.796;6.942;2023-04-22T06:11:22;10.00;99.90
52381;DHT22;38310;52.796;6.942;2023-04-22T06:13:48;9.90;99.90
52381;DHT22;38310;52.796;6.942;2023-04-22T06:16:13;9.90;99.90
52381;DHT22;38310;52.796;6.942;2023-04-22T06:18:39;10.00;99.90
52381;DHT22;38310;52.796;6.942;2023-04-22T06:21:05;10.00;99.90
52381;DHT22;38310;52.796;6.942;2023-04-22T06:23:31;10.10;99.90
52381;DHT22;38310;52.796;6.942;2023-04-22T06:25:56;10.10;99.90
52381;DHT22;38310;52.796;6.942;2023-04-22T06:28:23;10.20;99.90
52381;DHT22;38310;52.796;6.942;2023-04-22T06:30:48;10.20;99.90
52381;DHT22;38310;52.796;6.942;2023-04-22T06:33:14;10.20;99.90
52381;DHT22;38310;52.796;6.942;2023-04-22T06:35:40;10.30;99.90
52381;DHT22;38310;52.796;6.942;2023-04-22T06:38:05;10.40;99.90
52381;DHT22;38310;52.796;6.942;2023-04-22T06:40:31;10.40;99.90
52381;DHT22;38310;52.796;6.942;2023-04-22T06:42:57;10.50;99.90
52381;DHT22;38310;52.796;6.942;2023-04-22T06:45:24;10.50;99.90
52381;DHT22;38310;52.796;6.942;2023-04-22T06:47:51;10.60;99.90
52381;DHT22;38310;52.796;6.942;2023-04-22T06:50:18;10.60;99.90
52381;DHT22;38310;52.796;6.942;2023-04-22T06:52:45;10.70;99.90
52381;DHT22;38310;52.796;6.942;2023-04-22T06:55:11;10.70;99.90
52381;DHT22;38310;52.796;6.942;2023-04-22T06:57:37;10.80;99.90
52381;DHT22;38310;52.796;6.942;2023-04-22T07:00:07;10.80;99.90
52381;DHT22;38310;52.796;6.942;2023-04-22T07:02:35;10.90;99.90
52381;DHT22;38310;52.796;6.942;2023-04-22T07:05:01;10.90;99.90
52381;DHT22;38310;52.796;6.942;2023-04-22T07:07:27;11.00;99.90
52381;DHT22;38310;52.796;6.942;2023-04-22T07:09:52;11.10;99.90
52381;DHT22;38310;52.796;6.942;2023-04-22T07:12:18;11.10;99.90
52381;DHT22;38310;52.796;6.942;2023-04-22T07:14:44;11.20;99.90
52381;DHT22;38310;52.796;6.942;2023-04-22T07:17:11;11.30;99.90
52381;DHT22;38310;52.796;6.942;2023-04-22T07:19:37;11.30;99.90
52381;DHT22;38310;52.796;6.942;2023-04-22T07:22:03;11.40;99.90
52381;DHT22;38310;52.796;6.942;2023-04-22T07:24:30;11.60;99.90
52381;DHT22;38310;52.796;6.942;2023-04-22T07:26:56;11.60;99.90
52381;DHT22;38310;52.796;6.942;2023-04-22T07:29:22;11.70;99.90
52381;DHT22;38310;52.796;6.942;2023-04-22T07:31:48;12.40;99.90
52381;DHT22;38310;52.796;6.942;2023-04-22T07:34:13;11.90;99.90
52381;DHT22;38310;52.796;6.942;2023-04-22T07:36:40;11.90;99.90
52381;DHT22;38310;52.796;6.942;2023-04-22T07:39:05;12.00;99.90
52381;DHT22;38310;52.796;6.942;2023-04-22T07:41:32;12.10;99.90
52381;DHT22;38310;52.796;6.942;2023-04-22T07:43:58;12.20;99.90
52381;DHT22;38310;52.796;6.942;2023-04-22T07:46:24;12.30;99.90
52381;DHT22;38310;52.796;6.942;2023-04-22T07:48:50;12.40;99.90
52381;DHT22;38310;52.796;6.942;2023-04-22T07:51:16;12.50;99.90
52381;DHT22;38310;52.796;6.942;2023-04-22T07:53:41;12.60;99.90
52381;DHT22;38310;52.796;6.942;2023-04-22T07:56:07;12.70;99.90
52381;DHT22;38310;52.796;6.942;2023-04-22T07:58:33;12.90;99.90
52381;DHT22;38310;52.796;6.942;2023-04-22T08:00:58;13.00;99.90
52381;DHT22;38310;52.796;6.942;2023-04-22T08:03:24;13.20;99.90
52381;DHT22;38310;52.796;6.942;2023-04-22T08:05:50;13.30;99.90
52381;DHT22;38310;52.796;6.942;2023-04-22T08:08:16;13.40;99.90
52381;DHT22;38310;52.796;6.942;2023-04-22T08:10:42;13.50;99.90
52381;DHT22;38310;52.796;6.942;2023-04-22T08:13:07;13.70;99.90
52381;DHT22;38310;52.796;6.942;2023-04-22T08:15:33;13.80;99.90
52381;DHT22;38310;52.796;6.942;2023-04-22T08:17:59;14.00;99.90
52381;DHT22;38310;52.796;6.942;2023-04-22T08:20:25;14.20;99.90
52381;DHT22;38310;52.796;6.942;2023-04-22T08:22:51;14.40;99.90
52381;DHT22;38310;52.796;6.942;2023-04-22T08:25:22;14.70;99.90
52381;DHT22;38310;52.796;6.942;2023-04-22T08:27:49;15.00;99.90
52381;DHT22;38310;52.796;6.942;2023-04-22T08:30:15;15.30;99.90
52381;DHT22;38310;52.796;6.942;2023-04-22T08:32:40;15.30;99.90
52381;DHT22;38310;52.796;6.942;2023-04-22T08:35:06;15.40;99.90
52381;DHT22;38310;52.796;6.942;2023-04-22T08:37:33;15.40;99.90
52381;DHT22;38310;52.796;6.942;2023-04-22T08:39:59;15.40;99.90
52381;DHT22;38310;52.796;6.942;2023-04-22T08:42:26;15.50;99.90
52381;DHT22;38310;52.796;6.942;2023-04-22T08:44:53;15.60;99.90
52381;DHT22;38310;52.796;6.942;2023-04-22T08:47:20;15.70;99.90
52381;DHT22;38310;52.796;6.942;2023-04-22T08:49:46;15.90;99.90
52381;DHT22;38310;52.796;6.942;2023-04-22T08:52:12;16.20;99.90
52381;DHT22;38310;52.796;6.942;2023-04-22T08:54:40;16.30;99.90
52381;DHT22;38310;52.796;6.942;2023-04-22T08:57:07;16.30;99.90
52381;DHT22;38310;52.796;6.942;2023-04-22T08:59:36;16.50;99.90
52381;DHT22;38310;52.796;6.942;2023-04-22T09:02:04;16.80;99.90
52381;DHT22;38310;52.796;6.942;2023-04-22T09:04:31;16.80;99.90
52381;DHT22;38310;52.796;6.942;2023-04-22T09:06:58;17.10;99.90
52381;DHT22;38310;52.796;6.942;2023-04-22T09:09:24;17.20;99.90
52381;DHT22;38310;52.796;6.942;2023-04-22T09:11:50;17.40;99.90
52381;DHT22;38310;52.796;6.942;2023-04-22T09:14:16;17.60;99.90
52381;DHT22;38310;52.796;6.942;2023-04-22T09:16:46;17.40;99.90
52381;DHT22;38310;52.796;6.942;2023-04-22T09:19:13;17.20;99.90
52381;DHT22;38310;52.796;6.942;2023-04-22T09:21:40;17.40;99.90
52381;DHT22;38310;52.796;6.942;2023-04-22T09:24:07;17.70;99.90
52381;DHT22;38310;52.796;6.942;2023-04-22T09:26:33;17.80;99.90
52381;DHT22;38310;52.796;6.942;2023-04-22T09:28:59;18.10;99.90
52381;DHT22;38310;52.796;6.942;2023-04-22T09:31:28;17.80;99.90
52381;DHT22;38310;52.796;6.942;2023-04-22T09:33:56;18.10;99.90
52381;DHT22;38310;52.796;6.942;2023-04-22T09:36:26;18.40;99.90
52381;DHT22;38310;52.796;6.942;2023-04-22T09:38:57;18.60;99.90
52381;DHT22;38310;52.796;6.942;2023-04-22T09:41:34;18.70;99.90
52381;DHT22;38310;52.796;6.942;2023-04-22T09:44:04;18.50;99.90
52381;DHT22;38310;52.796;6.942;2023-04-22T09:46:33;18.60;99.90
52381;DHT22;38310;52.796;6.942;2023-04-22T09:49:00;18.50;99.90
52381;DHT22;38310;52.796;6.942;2023-04-22T09:51:27;18.30;99.90
52381;DHT22;38310;52.796;6.942;2023-04-22T09:54:06;18.40;99.90
52381;DHT22;38310;52.796;6.942;2023-04-22T09:56:46;18.40;99.90
52381;DHT22;38310;52.796;6.942;2023-04-22T09:59:23;18.50;99.90
52381;DHT22;38310;52.796;6.942;2023-04-22T10:01:52;18.70;99.90
52381;DHT22;38310;52.796;6.942;2023-04-22T10:04:18;18.60;99.90
52381;DHT22;38310;52.796;6.942;2023-04-22T10:06:48;18.70;99.90
52381;DHT22;38310;52.796;6.942;2023-04-22T10:09:17;19.00;99.90
52381;DHT22;38310;52.796;6.942;2023-04-22T10:11:43;19.20;99.90
52381;DHT22;38310;52.796;6.942;2023-04-22T10:14:09;19.30;99.90
52381;DHT22;38310;52.796;6.942;2023-04-22T10:16:37;19.50;99.90
52381;DHT22;38310;52.796;6.942;2023-04-22T10:19:05;19.40;99.90
52381;DHT22;38310;52.796;6.942;2023-04-22T10:21:31;19.50;99.90
52381;DHT22;38310;52.796;6.942;2023-04-22T10:23:59;19.60;99.90
52381;DHT22;38310;52.796;6.942;2023-04-22T10:26:45;19.90;99.90
52381;DHT22;38310;52.796;6.942;2023-04-22T10:29:14;19.70;99.90
52381;DHT22;38310;52.796;6.942;2023-04-22T10:31:54;20.00;99.90
52381;DHT22;38310;52.796;6.942;2023-04-22T10:34:23;20.20;99.90
52381;DHT22;38310;52.796;6.942;2023-04-22T10:37:08;20.20;99.90
52381;DHT22;38310;52.796;6.942;2023-04-22T10:39:34;20.30;99.90
52381;DHT22;38310;52.796;6.942;2023-04-22T10:42:07;20.40;99.90
52381;DHT22;38310;52.796;6.942;2023-04-22T10:47:32;20.80;99.90
52381;DHT22;38310;52.796;6.942;2023-04-22T10:50:20;20.60;99.90
52381;DHT22;38310;52.796;6.942;2023-04-22T10:52:49;20.70;99.90
52381;DHT22;38310;52.796;6.942;2023-04-22T10:55:15;21.10;99.90
52381;DHT22;38310;52.796;6.942;2023-04-22T10:57:45;21.30;99.90
52381;DHT22;38310;52.796;6.942;2023-04-22T11:00:30;21.00;99.90
52381;DHT22;38310;52.796;6.942;2023-04-22T11:03:07;21.00;99.90
52381;DHT22;38310;52.796;6.942;2023-04-22T11:05:33;20.90;99.90
52381;DHT22;38310;52.796;6.942;2023-04-22T11:08:17;20.60;99.90
52381;DHT22;38310;52.796;6.942;2023-04-22T11:10:49;20.80;99.90
52381;DHT22;38310;52.796;6.942;2023-04-22T11:13:17;21.20;99.90
52381;DHT22;38310;52.796;6.942;2023-04-22T11:15:46;21.00;99.90
52381;DHT22;38310;52.796;6.942;2023-04-22T11:18:23;21.50;99.90
52381;DHT22;38310;52.796;6.942;2023-04-22T11:20:50;21.20;99.90
52381;DHT22;38310;52.796;6.942;2023-04-22T11:23:26;21.30;99.90
52381;DHT22;38310;52.796;6.942;2023-04-22T11:26:05;21.40;99.90
52381;DHT22;38310;52.796;6.942;2023-04-22T11:28:31;21.40;99.90
52381;DHT22;38310;52.796;6.942;2023-04-22T11:31:05;21.70;99.90
52381;DHT22;38310;52.796;6.942;2023-04-22T11:33:35;21.30;99.90
52381;DHT22;38310;52.796;6.942;2023-04-22T11:36:02;21.50;99.90
52381;DHT22;38310;52.796;6.942;2023-04-22T11:38:28;21.90;99.90
52381;DHT22;38310;52.796;6.942;2023-04-22T11:40:55;21.80;99.90
52381;DHT22;38310;52.796;6.942;2023-04-22T11:43:24;21.70;99.90
52381;DHT22;38310;52.796;6.942;2023-04-22T11:45:50;22.10;99.90
52381;DHT22;38310;52.796;6.942;2023-04-22T11:48:16;21.30;99.90
52381;DHT22;38310;52.796;6.942;2023-04-22T11:50:42;21.30;99.90
52381;DHT22;38310;52.796;6.942;2023-04-22T11:53:16;21.60;99.90
52381;DHT22;38310;52.796;6.942;2023-04-22T11:55:44;21.50;99.90
52381;DHT22;38310;52.796;6.942;2023-04-22T11:58:23;21.30;99.90
52381;DHT22;38310;52.796;6.942;2023-04-22T12:00:51;21.60;99.90
52381;DHT22;38310;52.796;6.942;2023-04-22T12:03:27;21.90;99.90
52381;DHT22;38310;52.796;6.942;2023-04-22T12:05:57;22.10;99.90
52381;DHT22;38310;52.796;6.942;2023-04-22T12:08:25;22.40;99.90
52381;DHT22;38310;52.796;6.942;2023-04-22T12:10:54;21.60;99.90
52381;DHT22;38310;52.796;6.942;2023-04-22T12:13:40;22.20;99.90
52381;DHT22;38310;52.796;6.942;2023-04-22T12:16:17;22.20;99.90
52381;DHT22;38310;52.796;6.942;2023-04-22T12:18:53;22.80;99.90
52381;DHT22;38310;52.796;6.942;2023-04-22T12:21:22;23.10;99.90
52381;DHT22;38310;52.796;6.942;2023-04-22T12:23:54;22.50;99.90
52381;DHT22;38310;52.796;6.942;2023-04-22T12:26:21;22.60;99.90
52381;DHT22;38310;52.796;6.942;2023-04-22T12:28:49;22.40;99.90
52381;DHT22;38310;52.796;6.942;2023-04-22T12:31:15;22.70;99.90
52381;DHT22;38310;52.796;6.942;2023-04-22T12:33:41;22.40;99.90
52381;DHT22;38310;52.796;6.942;2023-04-22T12:36:07;22.30;99.90
52381;DHT22;38310;52.796;6.942;2023-04-22T12:38:33;22.20;99.90
52381;DHT22;38310;52.796;6.942;2023-04-22T12:41:00;22.60;99.90
52381;DHT22;38310;52.796;6.942;2023-04-22T12:43:26;23.00;99.90
52381;DHT22;38310;52.796;6.942;2023-04-22T12:45:51;23.00;99.90
52381;DHT22;38310;52.796;6.942;2023-04-22T12:48:17;23.10;99.90
52381;DHT22;38310;52.796;6.942;2023-04-22T12:50:43;23.50;99.90
52381;DHT22;38310;52.796;6.942;2023-04-22T12:53:09;23.10;99.90
52381;DHT22;38310;52.796;6.942;2023-04-22T12:55:35;23.20;99.90
52381;DHT22;38310;52.796;6.942;2023-04-22T12:58:01;22.70;99.90
52381;DHT22;38310;52.796;6.942;2023-04-22T13:00:27;22.80;99.90
52381;DHT22;38310;52.796;6.942;2023-04-22T13:02:52;23.10;99.90
52381;DHT22;38310;52.796;6.942;2023-04-22T13:05:19;22.80;99.90
52381;DHT22;38310;52.796;6.942;2023-04-22T13:07:45;22.90;99.90
52381;DHT22;38310;52.796;6.942;2023-04-22T13:10:13;22.80;99.90
52381;DHT22;38310;52.796;6.942;2023-04-22T13:12:40;22.60;99.90
52381;DHT22;38310;52.796;6.942;2023-04-22T13:15:06;22.30;99.90
52381;DHT22;38310;52.796;6.942;2023-04-22T13:17:32;22.20;99.90
52381;DHT22;38310;52.796;6.942;2023-04-22T13:19:58;21.70;99.90
52381;DHT22;38310;52.796;6.942;2023-04-22T13:22:24;21.40;99.90
52381;DHT22;38310;52.796;6.942;2023-04-22T13:24:50;21.80;99.90
52381;DHT22;38310;52.796;6.942;2023-04-22T13:27:15;22.20;99.90
52381;DHT22;38310;52.796;6.942;2023-04-22T13:29:42;22.20;99.90
52381;DHT22;38310;52.796;6.942;2023-04-22T13:32:07;22.50;99.90
52381;DHT22;38310;52.796;6.942;2023-04-22T13:34:33;22.80;99.90
52381;DHT22;38310;52.796;6.942;2023-04-22T13:36:59;23.10;99.90
52381;DHT22;38310;52.796;6.942;2023-04-22T13:39:25;23.20;99.90
52381;DHT22;38310;52.796;6.942;2023-04-22T13:41:52;23.00;99.90
52381;DHT22;38310;52.796;6.942;2023-04-22T13:44:17;22.90;99.90
52381;DHT22;38310;52.796;6.942;2023-04-22T13:46:43;22.70;99.90
52381;DHT22;38310;52.796;6.942;2023-04-22T13:49:10;22.70;99.90
52381;DHT22;38310;52.796;6.942;2023-04-22T13:51:36;22.40;99.90
52381;DHT22;38310;52.796;6.942;2023-04-22T13:54:02;22.10;99.90
52381;DHT22;38310;52.796;6.942;2023-04-22T13:56:29;22.30;99.90
52381;DHT22;38310;52.796;6.942;2023-04-22T13:58:55;22.00;99.90
52381;DHT22;38310;52.796;6.942;2023-04-22T14:01:21;21.90;99.90
52381;DHT22;38310;52.796;6.942;2023-04-22T14:03:47;21.40;99.90
52381;DHT22;38310;52.796;6.942;2023-04-22T14:06:14;21.40;99.90
52381;DHT22;38310;52.796;6.942;2023-04-22T14:08:40;21.00;99.90
52381;DHT22;38310;52.796;6.942;2023-04-22T14:11:07;20.90;99.90
52381;DHT22;38310;52.796;6.942;2023-04-22T14:13:33;20.70;99.90
52381;DHT22;38310;52.796;6.942;2023-04-22T14:15:59;20.70;99.90
52381;DHT22;38310;52.796;6.942;2023-04-22T14:18:26;20.40;99.90
52381;DHT22;38310;52.796;6.942;2023-04-22T14:20:52;20.30;99.90
52381;DHT22;38310;52.796;6.942;2023-04-22T14:23:18;20.50;99.90
52381;DHT22;38310;52.796;6.942;2023-04-22T14:25:45;20.50;99.90
52381;DHT22;38310;52.796;6.942;2023-04-22T14:28:12;20.50;99.90
52381;DHT22;38310;52.796;6.942;2023-04-22T14:30:38;20.50;99.90
52381;DHT22;38310;52.796;6.942;2023-04-22T14:33:05;20.50;99.90
52381;DHT22;38310;52.796;6.942;2023-04-22T14:35:34;20.40;99.90
52381;DHT22;38310;52.796;6.942;2023-04-22T14:38:01;20.00;99.90
52381;DHT22;38310;52.796;6.942;2023-04-22T14:40:27;20.20;99.90
52381;DHT22;38310;52.796;6.942;2023-04-22T14:42:55;20.20;99.90
52381;DHT22;38310;52.796;6.942;2023-04-22T14:45:22;20.00;99.90
52381;DHT22;38310;52.796;6.942;2023-04-22T14:47:48;20.00;99.90
52381;DHT22;38310;52.796;6.942;2023-04-22T14:50:14;20.00;99.90
52381;DHT22;38310;52.796;6.942;2023-04-22T14:52:40;20.10;99.90
52381;DHT22;38310;52.796;6.942;2023-04-22T14:55:06;20.00;99.90
52381;DHT22;38310;52.796;6.942;2023-04-22T14:57:32;20.00;99.90
52381;DHT22;38310;52.796;6.942;2023-04-22T14:59:57;19.90;99.90
52381;DHT22;38310;52.796;6.942;2023-04-22T15:02:23;19.80;99.90
52381;DHT22;38310;52.796;6.942;2023-04-22T15:04:49;19.80;99.90
52381;DHT22;38310;52.796;6.942;2023-04-22T15:07:15;19.80;99.90
52381;DHT22;38310;52.796;6.942;2023-04-22T15:09:41;19.70;99.90
52381;DHT22;38310;52.796;6.942;2023-04-22T15:12:06;19.70;99.90
52381;DHT22;38310;52.796;6.942;2023-04-22T15:14:33;19.70;99.90
52381;DHT22;38310;52.796;6.942;2023-04-22T15:17:03;19.70;99.90
52381;DHT22;38310;52.796;6.942;2023-04-22T15:19:29;19.60;99.90
52381;DHT22;38310;52.796;6.942;2023-04-22T15:21:55;19.50;99.90
52381;DHT22;38310;52.796;6.942;2023-04-22T15:24:22;19.30;99.90
52381;DHT22;38310;52.796;6.942;2023-04-22T15:26:50;18.80;99.90
52381;DHT22;38310;52.796;6.942;2023-04-22T15:29:17;18.50;99.90
52381;DHT22;38310;52.796;6.942;2023-04-22T15:31:44;18.10;99.90
52381;DHT22;38310;52.796;6.942;2023-04-22T15:34:10;17.80;99.90
52381;DHT22;38310;52.796;6.942;2023-04-22T15:36:35;17.60;99.90